Weather at Turku Airport

Public forecast

Using degrees Celsius for public forecast. Weather courtesy of forecast.io.

Current aviation weather report (METAR) for Turku Airport

Retrieved 2022/07/03 06:20 UTC (0 seconds ago):

EFTU 030620Z AUTO 27008KT 250V320 9999 FEW026 20/13 Q1018

Aviation forecast (TAF) for Turku Airport

Retrieved 2022/07/03 06:42 UTC (0 seconds ago):

TAF EFTU 030526Z 0306/0406 25009KT CAVOK PROB30 0400/0403 5000 MIFG